Time;durP1;ratioP1;P1;durP2;ratioP2;P2;SDS_P1;SDS_P2;PMS_P1;PMS_P2;Temp;Humidity;BMP_temperature;BMP_pressure;BME280_temperature;BME280_humidity;BME280_pressure;Samples;Min_cycle;Max_cycle;Signal;HPM_P1;HPM_P2
2023/12/17 00:00:46;;;;;;;4.95;3.15;;;11.30;99.90;;;;;;5032488;28;20029;-44
2023/12/17 00:03:12;;;;;;;5.28;3.38;;;11.30;99.90;;;;;;5031510;28;20483;-42
2023/12/17 00:05:38;;;;;;;5.38;3.85;;;11.30;99.90;;;;;;5031776;28;20024;-44
2023/12/17 00:08:03;;;;;;;5.18;3.30;;;11.30;99.90;;;;;;5032275;28;20021;-43
2023/12/17 00:10:29;;;;;;;5.10;3.08;;;11.30;99.90;;;;;;5031297;28;20111;-44
2023/12/17 00:12:55;;;;;;;5.43;3.28;;;11.30;99.90;;;;;;5031732;28;20031;-42
2023/12/17 00:15:21;;;;;;;5.15;3.38;;;11.30;99.90;;;;;;5031393;28;20029;-44
2023/12/17 00:17:47;;;;;;;5.05;2.95;;;11.30;99.90;;;;;;5031158;28;20029;-44
2023/12/17 00:20:13;;;;;;;4.43;2.97;;;11.20;99.90;;;;;;5031142;28;20104;-44
2023/12/17 00:22:39;;;;;;;4.90;3.33;;;11.20;99.90;;;;;;5031080;28;20355;-43
2023/12/17 00:25:05;;;;;;;4.50;2.80;;;11.30;99.90;;;;;;5032309;28;20048;-42
2023/12/17 00:27:31;;;;;;;4.45;3.10;;;11.30;99.90;;;;;;5031689;28;20032;-43
2023/12/17 00:29:56;;;;;;;4.05;2.88;;;11.20;99.90;;;;;;5032606;28;20025;-44
2023/12/17 00:32:22;;;;;;;4.53;3.08;;;11.20;99.90;;;;;;5032769;28;20435;-43
2023/12/17 00:34:48;;;;;;;5.93;2.97;;;11.20;99.90;;;;;;5032476;28;20044;-44
2023/12/17 00:37:13;;;;;;;4.63;3.08;;;11.20;99.90;;;;;;5032107;28;20026;-43
2023/12/17 00:39:39;;;;;;;4.18;3.08;;;11.20;99.90;;;;;;5032224;28;20025;-44
2023/12/17 00:42:05;;;;;;;5.00;3.10;;;11.20;99.90;;;;;;5032732;28;20037;-42
2023/12/17 00:44:30;;;;;;;3.97;2.72;;;11.20;99.90;;;;;;5031655;28;20034;-43
2023/12/17 00:46:56;;;;;;;3.58;3.10;;;11.20;99.90;;;;;;5031527;28;20104;-43
2023/12/17 00:49:22;;;;;;;3.63;3.00;;;11.20;99.90;;;;;;5032292;28;20438;-42
2023/12/17 00:51:47;;;;;;;3.90;2.72;;;11.20;99.90;;;;;;5031538;28;20029;-44
2023/12/17 00:54:13;;;;;;;4.03;2.72;;;11.20;99.90;;;;;;5031440;28;20036;-43
2023/12/17 00:56:39;;;;;;;4.50;2.97;;;11.20;99.90;;;;;;5030907;28;20549;-43
2023/12/17 00:59:04;;;;;;;4.22;2.92;;;11.20;99.90;;;;;;5031572;28;20116;-44
2023/12/17 01:01:30;;;;;;;3.83;2.90;;;11.10;99.90;;;;;;5031533;28;20384;-44
2023/12/17 01:03:56;;;;;;;3.80;3.00;;;11.10;99.90;;;;;;5031544;28;20025;-43
2023/12/17 01:06:21;;;;;;;4.13;2.97;;;11.20;99.90;;;;;;5031285;28;20022;-44
2023/12/17 01:08:47;;;;;;;4.85;3.30;;;11.10;99.90;;;;;;5031375;28;20131;-43
2023/12/17 01:11:13;;;;;;;4.97;3.42;;;11.10;99.90;;;;;;5031173;28;20032;-43
2023/12/17 01:13:38;;;;;;;3.92;2.45;;;11.10;99.90;;;;;;5031678;28;20052;-44
2023/12/17 01:16:04;;;;;;;4.93;2.63;;;11.10;99.90;;;;;;5030932;28;20029;-44
2023/12/17 01:18:30;;;;;;;4.18;2.85;;;11.10;99.90;;;;;;5031941;28;20033;-43
2023/12/17 01:20:58;;;;;;;4.50;3.05;;;11.10;99.90;;;;;;5033438;28;20533;-43
2023/12/17 01:23:23;;;;;;;4.53;2.90;;;11.10;99.90;;;;;;5035183;28;20025;-43
2023/12/17 01:25:49;;;;;;;4.43;2.85;;;11.10;99.90;;;;;;5034904;28;20105;-44
2023/12/17 01:28:14;;;;;;;3.92;2.85;;;11.10;99.90;;;;;;5034875;28;20068;-44
2023/12/17 01:30:40;;;;;;;4.20;2.90;;;11.10;99.90;;;;;;5034565;28;20443;-43
2023/12/17 01:33:06;;;;;;;4.07;2.90;;;11.10;99.90;;;;;;5035599;28;20017;-43
2023/12/17 01:35:32;;;;;;;3.58;2.40;;;11.10;99.90;;;;;;5034879;28;20079;-44
2023/12/17 01:37:58;;;;;;;3.95;2.58;;;11.10;99.90;;;;;;5035388;28;20054;-43
2023/12/17 01:40:24;;;;;;;4.63;2.95;;;11.10;99.90;;;;;;5035022;28;20057;-43
2023/12/17 01:42:52;;;;;;;3.95;2.60;;;11.10;99.90;;;;;;5034421;28;20034;-44
2023/12/17 01:45:18;;;;;;;3.33;2.55;;;11.10;99.90;;;;;;5034031;28;20483;-42
2023/12/17 01:47:44;;;;;;;3.63;2.53;;;11.10;99.90;;;;;;5033911;28;20052;-43
2023/12/17 01:50:11;;;;;;;3.22;2.55;;;11.10;99.90;;;;;;5034892;28;20034;-43
2023/12/17 01:52:38;;;;;;;2.92;2.30;;;11.10;99.90;;;;;;5035298;28;20072;-44
2023/12/17 01:55:05;;;;;;;4.32;2.40;;;11.10;99.90;;;;;;5035584;28;20026;-43
2023/12/17 01:57:31;;;;;;;3.47;2.70;;;11.10;99.90;;;;;;5034138;28;20483;-44
2023/12/17 01:59:57;;;;;;;4.35;2.58;;;11.10;99.90;;;;;;5034643;28;20052;-42
2023/12/17 02:02:23;;;;;;;4.22;2.90;;;11.10;99.90;;;;;;5035288;28;20026;-44
2023/12/17 02:04:50;;;;;;;3.90;2.55;;;11.10;99.90;;;;;;5033483;28;20018;-44
2023/12/17 02:07:16;;;;;;;2.88;2.30;;;11.10;99.90;;;;;;5034605;28;20096;-43
2023/12/17 02:09:42;;;;;;;3.83;2.60;;;11.00;99.90;;;;;;5034740;28;20028;-43
2023/12/17 02:12:15;;;;;;;2.72;2.20;;;11.00;99.90;;;;;;5033899;28;20033;-44
2023/12/17 02:14:40;;;;;;;3.55;2.60;;;11.10;99.90;;;;;;5034221;28;20033;-43
2023/12/17 02:17:06;;;;;;;3.38;2.30;;;11.00;99.90;;;;;;5033394;28;20028;-44
2023/12/17 02:19:32;;;;;;;3.58;2.33;;;11.00;99.90;;;;;;5032940;28;20037;-44
2023/12/17 02:21:57;;;;;;;3.60;2.50;;;11.00;99.90;;;;;;5033977;28;20482;-44
2023/12/17 02:24:23;;;;;;;3.10;2.22;;;11.00;99.90;;;;;;5033587;28;20033;-44
2023/12/17 02:26:49;;;;;;;3.72;2.58;;;11.00;99.90;;;;;;5033255;28;20116;-42
2023/12/17 02:29:14;;;;;;;3.47;2.38;;;11.00;99.90;;;;;;5033550;28;20065;-43
2023/12/17 02:31:40;;;;;;;3.25;2.40;;;11.00;99.90;;;;;;5033568;28;20032;-41
2023/12/17 02:34:05;;;;;;;2.15;1.95;;;11.00;99.90;;;;;;5033211;28;20022;-41
2023/12/17 02:36:31;;;;;;;2.70;2.00;;;11.00;99.90;;;;;;5033299;28;20025;-43
2023/12/17 02:38:57;;;;;;;2.70;2.22;;;11.00;99.90;;;;;;5034446;28;20017;-44
2023/12/17 02:41:23;;;;;;;3.17;2.03;;;11.00;99.90;;;;;;5034073;28;20041;-43
2023/12/17 02:43:49;;;;;;;2.92;2.08;;;11.00;99.90;;;;;;5033818;28;20018;-44
2023/12/17 02:46:15;;;;;;;3.75;2.13;;;11.00;99.90;;;;;;5033241;28;20395;-44
2023/12/17 02:48:41;;;;;;;2.83;2.00;;;11.00;99.90;;;;;;5032595;28;20021;-43
2023/12/17 02:51:08;;;;;;;3.58;2.08;;;11.00;99.90;;;;;;5033662;28;20213;-44
2023/12/17 02:53:34;;;;;;;3.50;2.20;;;11.00;99.90;;;;;;5033237;28;20025;-44
2023/12/17 02:56:00;;;;;;;3.80;1.85;;;11.00;99.90;;;;;;5034184;28;20091;-44
2023/12/17 02:58:26;;;;;;;3.08;1.90;;;11.00;99.90;;;;;;5032798;28;20032;-44
2023/12/17 03:00:51;;;;;;;2.45;2.00;;;11.00;99.90;;;;;;5032341;28;20017;-44
2023/12/17 03:03:17;;;;;;;4.68;2.00;;;10.90;99.90;;;;;;5032565;28;20029;-44
2023/12/17 03:05:42;;;;;;;2.70;2.00;;;11.00;99.90;;;;;;5033064;28;20021;-44
2023/12/17 03:08:09;;;;;;;3.28;2.20;;;11.00;99.90;;;;;;5032326;28;20571;-44
2023/12/17 03:10:38;;;;;;;2.60;2.08;;;11.00;99.90;;;;;;5033551;28;20021;-44
2023/12/17 03:13:03;;;;;;;2.30;2.00;;;10.90;99.90;;;;;;5033031;28;20136;-44
2023/12/17 03:15:29;;;;;;;3.65;2.08;;;10.90;99.90;;;;;;5033191;28;20499;-44
2023/12/17 03:17:54;;;;;;;3.08;2.10;;;10.90;99.90;;;;;;5032545;28;20072;-44
2023/12/17 03:20:20;;;;;;;2.80;2.00;;;10.90;99.90;;;;;;5032796;28;20033;-42
2023/12/17 03:22:46;;;;;;;3.38;1.70;;;10.90;99.90;;;;;;5032262;28;20041;-43
2023/12/17 03:25:11;;;;;;;2.45;1.70;;;10.90;99.90;;;;;;5032755;28;20022;-43
2023/12/17 03:27:37;;;;;;;2.67;2.05;;;10.90;99.90;;;;;;5032429;28;20483;-41
2023/12/17 03:30:04;;;;;;;2.65;1.70;;;10.90;99.90;;;;;;5033407;28;20025;-41
2023/12/17 03:32:30;;;;;;;2.63;1.90;;;10.90;99.90;;;;;;5032402;28;20098;-44
2023/12/17 03:34:55;;;;;;;2.60;2.08;;;10.90;99.90;;;;;;5032562;28;20527;-44
2023/12/17 03:37:21;;;;;;;1.95;1.60;;;10.90;99.90;;;;;;5031688;28;20026;-43
2023/12/17 03:39:48;;;;;;;1.75;1.50;;;10.90;99.90;;;;;;5032898;28;20429;-43
2023/12/17 03:42:14;;;;;;;2.40;1.60;;;10.90;99.90;;;;;;5032135;28;20045;-42
2023/12/17 03:44:39;;;;;;;2.83;2.00;;;11.00;99.90;;;;;;5032618;28;20134;-44
2023/12/17 03:47:05;;;;;;;2.50;1.73;;;11.00;99.90;;;;;;5033011;28;20028;-43
2023/12/17 03:49:31;;;;;;;3.22;1.85;;;11.00;99.90;;;;;;5031584;28;20066;-44
2023/12/17 03:51:56;;;;;;;1.83;1.50;;;11.00;99.90;;;;;;5033073;28;20029;-44
2023/12/17 03:54:22;;;;;;;2.22;1.63;;;11.10;99.90;;;;;;5031587;28;20471;-43
2023/12/17 03:56:47;;;;;;;2.03;1.63;;;11.10;99.90;;;;;;5032000;28;20068;-44
2023/12/17 03:59:13;;;;;;;2.78;1.70;;;11.10;99.90;;;;;;5031443;28;20050;-44
2023/12/17 04:01:46;;;;;;;2.40;1.63;;;11.20;99.90;;;;;;5031780;28;20035;-44
2023/12/17 04:04:13;;;;;;;2.78;2.00;;;11.20;99.90;;;;;;5032862;28;20022;-44
2023/12/17 04:06:43;;;;;;;1.73;1.40;;;11.20;99.90;;;;;;5031637;28;20022;-44
2023/12/17 04:09:10;;;;;;;1.85;1.55;;;11.20;99.90;;;;;;5031364;28;20488;-42
2023/12/17 04:11:35;;;;;;;2.13;1.55;;;11.20;99.90;;;;;;5031854;28;20055;-44
2023/12/17 04:14:01;;;;;;;2.80;1.95;;;11.20;99.90;;;;;;5031955;28;20531;-43
2023/12/17 04:16:28;;;;;;;2.00;1.58;;;11.20;99.90;;;;;;5030331;28;20025;-43
2023/12/17 04:18:53;;;;;;;2.70;1.50;;;11.20;99.90;;;;;;5032337;28;20025;-43
2023/12/17 04:21:19;;;;;;;1.75;1.40;;;11.20;99.90;;;;;;5032268;28;20440;-44
2023/12/17 04:23:45;;;;;;;2.90;1.80;;;11.30;99.90;;;;;;5031144;28;20041;-44
2023/12/17 04:26:14;;;;;;;2.45;1.55;;;11.20;99.90;;;;;;5031210;28;20147;-42
2023/12/17 04:28:39;;;;;;;2.08;1.48;;;11.30;99.90;;;;;;5031112;28;20065;-42
2023/12/17 04:31:05;;;;;;;1.75;1.40;;;11.30;99.90;;;;;;5031389;28;20479;-43
2023/12/17 04:33:31;;;;;;;2.05;1.50;;;11.30;99.90;;;;;;5032262;28;20036;-43
2023/12/17 04:35:57;;;;;;;1.75;1.55;;;11.20;99.90;;;;;;5031339;28;20400;-44
2023/12/17 04:38:23;;;;;;;2.58;1.60;;;11.20;99.90;;;;;;5031354;28;20520;-44
2023/12/17 04:40:49;;;;;;;1.75;1.38;;;11.20;99.90;;;;;;5031665;28;20113;-43
2023/12/17 04:43:15;;;;;;;3.20;1.65;;;11.20;99.90;;;;;;5032286;28;20387;-43
2023/12/17 04:45:41;;;;;;;2.20;1.42;;;11.20;99.90;;;;;;5031213;28;20035;-44
2023/12/17 04:48:06;;;;;;;2.40;1.60;;;11.20;99.90;;;;;;5030864;28;20029;-43
2023/12/17 04:50:32;;;;;;;3.33;2.08;;;11.20;99.90;;;;;;5030878;28;20483;-44
2023/12/17 04:52:58;;;;;;;2.20;1.50;;;11.20;99.90;;;;;;5030944;28;20384;-43
2023/12/17 04:55:23;;;;;;;2.67;1.70;;;11.20;99.90;;;;;;5034086;28;20029;-44
2023/12/17 04:57:49;;;;;;;2.45;1.50;;;11.20;99.90;;;;;;5035439;28;20105;-43
2023/12/17 05:00:15;;;;;;;2.17;1.50;;;11.20;99.90;;;;;;5036109;28;20029;-44
2023/12/17 05:02:41;;;;;;;2.17;1.50;;;11.20;99.90;;;;;;5035759;28;20030;-43
2023/12/17 05:05:07;;;;;;;3.08;1.70;;;11.20;99.90;;;;;;5035973;28;20033;-43
2023/12/17 05:07:33;;;;;;;1.60;1.40;;;11.20;99.90;;;;;;5035403;28;20101;-44
2023/12/17 05:09:59;;;;;;;2.20;1.48;;;11.10;99.90;;;;;;5034624;28;20434;-43
2023/12/17 05:12:24;;;;;;;1.83;1.40;;;11.10;99.90;;;;;;5034968;28;20034;-43
2023/12/17 05:14:50;;;;;;;2.13;1.50;;;11.10;99.90;;;;;;5036075;28;20029;-43
2023/12/17 05:17:15;;;;;;;2.20;1.60;;;11.10;99.90;;;;;;5035670;28;20479;-43
2023/12/17 05:19:41;;;;;;;2.55;1.90;;;11.10;99.90;;;;;;5035330;28;20032;-43
2023/12/17 05:22:07;;;;;;;2.22;1.40;;;11.10;99.90;;;;;;5035204;28;20372;-44
2023/12/17 05:24:32;;;;;;;2.13;1.23;;;11.10;99.90;;;;;;5035434;28;20021;-44
2023/12/17 05:26:58;;;;;;;2.95;1.40;;;11.10;99.90;;;;;;5035494;28;20025;-43
2023/12/17 05:29:23;;;;;;;2.10;1.40;;;11.10;99.90;;;;;;5034380;28;20438;-43
2023/12/17 05:31:49;;;;;;;2.55;1.50;;;11.10;99.90;;;;;;5034852;28;20029;-44
2023/12/17 05:34:16;;;;;;;2.55;1.42;;;11.10;99.90;;;;;;5034793;28;20475;-42
2023/12/17 05:36:42;;;;;;;2.95;1.42;;;11.10;99.90;;;;;;5034965;28;20064;-44
2023/12/17 05:39:07;;;;;;;2.63;1.40;;;11.00;99.90;;;;;;5034110;28;20029;-43
2023/12/17 05:41:33;;;;;;;2.13;1.30;;;11.10;99.90;;;;;;5034482;28;20101;-44
2023/12/17 05:43:59;;;;;;;1.58;1.20;;;11.00;99.90;;;;;;5034788;28;20391;-42
2023/12/17 05:46:26;;;;;;;1.98;1.30;;;11.00;99.90;;;;;;5034988;28;20025;-43
2023/12/17 05:48:52;;;;;;;2.50;1.70;;;11.00;99.90;;;;;;5034769;28;20033;-44
2023/12/17 05:51:18;;;;;;;2.35;1.45;;;11.00;99.90;;;;;;5035477;28;20049;-43
2023/12/17 05:53:44;;;;;;;1.40;1.20;;;11.00;99.90;;;;;;5034221;28;20487;-43
2023/12/17 05:56:09;;;;;;;2.33;1.55;;;11.00;99.90;;;;;;5034783;28;20488;-43
2023/12/17 05:58:35;;;;;;;2.70;1.58;;;11.00;99.90;;;;;;5033610;28;20407;-44
2023/12/17 06:01:01;;;;;;;2.13;1.50;;;11.00;99.90;;;;;;5033897;28;20025;-44
2023/12/17 06:03:28;;;;;;;2.00;1.35;;;11.00;99.90;;;;;;5035034;28;20087;-43
2023/12/17 06:05:54;;;;;;;1.95;1.20;;;10.90;99.90;;;;;;5031593;28;20071;-43
2023/12/17 06:08:19;;;;;;;2.42;1.40;;;11.00;99.90;;;;;;5034534;28;20099;-43
2023/12/17 06:10:45;;;;;;;1.80;1.35;;;10.90;99.90;;;;;;5033904;28;20116;-42
2023/12/17 06:13:10;;;;;;;2.10;1.40;;;10.90;99.90;;;;;;5035809;28;20026;-44
2023/12/17 06:15:36;;;;;;;1.73;1.38;;;10.90;99.90;;;;;;5033440;28;20040;-44
2023/12/17 06:18:02;;;;;;;1.83;1.42;;;10.90;99.90;;;;;;5034511;28;20025;-44
2023/12/17 06:20:27;;;;;;;1.75;1.20;;;10.90;99.90;;;;;;5034927;28;20419;-44
2023/12/17 06:22:53;;;;;;;1.70;1.25;;;10.90;99.90;;;;;;5034724;28;20033;-44
2023/12/17 06:25:19;;;;;;;2.15;1.42;;;10.90;99.90;;;;;;5033305;28;20095;-44
2023/12/17 06:27:44;;;;;;;3.05;1.77;;;10.90;99.90;;;;;;5033628;28;20091;-42
2023/12/17 06:30:10;;;;;;;1.58;1.30;;;10.90;99.90;;;;;;5035206;28;20025;-43
2023/12/17 06:32:36;;;;;;;2.30;1.50;;;10.90;99.90;;;;;;5035106;28;20025;-44
2023/12/17 06:35:01;;;;;;;2.13;1.40;;;10.90;99.90;;;;;;5033842;28;20485;-42
2023/12/17 06:37:27;;;;;;;1.92;1.33;;;10.90;99.90;;;;;;5033173;28;20104;-44
2023/12/17 06:39:53;;;;;;;2.67;1.52;;;10.90;99.90;;;;;;5032960;28;20079;-42
2023/12/17 06:42:18;;;;;;;2.60;1.52;;;10.90;99.90;;;;;;5033997;28;20060;-44
2023/12/17 06:44:44;;;;;;;2.10;1.40;;;10.80;99.90;;;;;;5032951;28;20539;-41
2023/12/17 06:47:09;;;;;;;2.63;1.77;;;10.80;99.90;;;;;;5034416;28;20025;-42
2023/12/17 06:49:38;;;;;;;2.63;1.45;;;10.80;99.90;;;;;;5033285;28;20476;-43
2023/12/17 06:52:04;;;;;;;2.10;1.65;;;10.90;99.90;;;;;;5033039;28;20524;-42
2023/12/17 06:54:30;;;;;;;1.65;1.33;;;10.80;99.90;;;;;;5033885;28;20361;-43
2023/12/17 06:56:55;;;;;;;2.47;1.60;;;10.80;99.90;;;;;;5033703;28;20044;-43
2023/12/17 06:59:21;;;;;;;1.88;1.40;;;10.80;99.90;;;;;;5033443;28;20056;-44
2023/12/17 07:01:46;;;;;;;2.00;1.52;;;10.80;99.90;;;;;;5033025;28;20029;-43
2023/12/17 07:04:12;;;;;;;2.13;1.73;;;10.80;99.90;;;;;;5032482;28;20100;-43
2023/12/17 07:06:38;;;;;;;3.53;1.90;;;10.80;99.90;;;;;;5033879;28;20024;-43
2023/12/17 07:09:03;;;;;;;2.35;1.63;;;10.80;99.90;;;;;;5033704;28;20483;-43
2023/12/17 07:11:29;;;;;;;1.88;1.42;;;10.80;99.90;;;;;;5033842;28;20033;-44
2023/12/17 07:13:54;;;;;;;2.22;1.90;;;10.80;99.90;;;;;;5032772;28;20702;-44
2023/12/17 07:16:25;;;;;;;3.42;1.60;;;10.70;99.90;;;;;;5032255;28;20044;-44
2023/12/17 07:18:51;;;;;;;2.40;1.60;;;10.80;99.90;;;;;;5031084;28;20404;-42
2023/12/17 07:21:17;;;;;;;2.60;1.80;;;10.80;99.90;;;;;;5032828;28;20024;-44
2023/12/17 07:23:43;;;;;;;2.75;1.75;;;10.70;99.90;;;;;;5032482;28;20029;-43
2023/12/17 07:26:08;;;;;;;3.50;2.17;;;10.70;99.90;;;;;;5033272;28;20036;-44
2023/12/17 07:28:34;;;;;;;2.97;2.15;;;10.70;99.90;;;;;;5032014;28;20022;-42
2023/12/17 07:31:00;;;;;;;2.80;2.22;;;10.70;99.90;;;;;;5033299;28;20022;-44
2023/12/17 07:33:26;;;;;;;3.88;1.90;;;10.70;99.90;;;;;;5032178;28;20446;-43
2023/12/17 07:35:52;;;;;;;2.92;1.73;;;10.80;99.90;;;;;;5032301;28;20109;-44
2023/12/17 07:38:18;;;;;;;3.17;1.95;;;10.80;99.90;;;;;;5031888;28;20587;-44
2023/12/17 07:40:44;;;;;;;2.95;1.92;;;10.80;99.90;;;;;;5031794;28;20033;-43
2023/12/17 07:43:10;;;;;;;3.67;2.10;;;10.80;99.90;;;;;;5032263;28;20044;-44
2023/12/17 07:45:37;;;;;;;3.65;1.88;;;10.90;99.90;;;;;;5032788;28;20045;-44
2023/12/17 07:48:03;;;;;;;2.05;1.77;;;10.90;99.90;;;;;;5032533;28;20565;-44
2023/12/17 07:50:29;;;;;;;2.47;2.13;;;10.90;99.90;;;;;;5032212;28;20032;-44
2023/12/17 07:52:55;;;;;;;2.30;2.00;;;11.00;99.90;;;;;;5032700;28;20072;-43
2023/12/17 07:55:22;;;;;;;2.28;1.90;;;11.00;99.90;;;;;;5030669;28;20585;-43
2023/12/17 07:57:48;;;;;;;2.53;1.77;;;11.10;99.90;;;;;;5032086;28;20395;-44
2023/12/17 08:00:14;;;;;;;2.80;2.13;;;11.10;99.90;;;;;;5031841;28;20415;-43
2023/12/17 08:02:40;;;;;;;2.65;2.13;;;11.20;99.90;;;;;;5032946;28;20104;-44
2023/12/17 08:05:06;;;;;;;3.53;2.22;;;11.30;99.90;;;;;;5032240;28;20507;-43
2023/12/17 08:07:32;;;;;;;2.20;2.00;;;11.40;99.90;;;;;;5031581;28;20036;-43
2023/12/17 08:09:58;;;;;;;2.53;1.90;;;11.40;99.90;;;;;;5031626;28;20044;-43
2023/12/17 08:12:24;;;;;;;3.40;2.38;;;11.50;99.90;;;;;;5031422;28;20395;-44
2023/12/17 08:14:50;;;;;;;4.65;2.45;;;11.60;99.90;;;;;;5032807;28;20025;-43
2023/12/17 08:17:16;;;;;;;2.95;2.08;;;11.70;99.90;;;;;;5032020;28;20561;-41
2023/12/17 08:19:42;;;;;;;2.78;2.08;;;11.80;99.90;;;;;;5032082;28;20452;-42
2023/12/17 08:22:09;;;;;;;2.65;2.08;;;11.90;99.90;;;;;;5031224;28;20076;-44
2023/12/17 08:24:34;;;;;;;3.55;1.98;;;12.00;99.90;;;;;;5031417;28;20044;-43
2023/12/17 08:27:01;;;;;;;3.10;2.17;;;12.10;99.90;;;;;;5032187;28;20475;-43
2023/12/17 08:29:26;;;;;;;2.47;2.10;;;12.20;99.90;;;;;;5030991;28;20026;-44
2023/12/17 08:31:52;;;;;;;3.78;2.13;;;12.30;99.90;;;;;;5031204;28;20032;-44
2023/12/17 08:34:17;;;;;;;2.92;2.35;;;12.40;99.90;;;;;;5031157;28;20025;-43
2023/12/17 08:36:43;;;;;;;3.97;2.45;;;12.50;99.90;;;;;;5032309;28;20495;-44
2023/12/17 08:39:11;;;;;;;2.65;1.80;;;12.60;99.90;;;;;;5032080;28;20037;-44
2023/12/17 08:41:38;;;;;;;2.85;2.15;;;12.70;99.80;;;;;;5031882;28;20028;-43
2023/12/17 08:44:04;;;;;;;2.60;2.08;;;12.80;99.70;;;;;;5031009;28;20455;-44
2023/12/17 08:46:30;;;;;;;2.08;1.80;;;12.90;99.70;;;;;;5031292;28;20171;-44
2023/12/17 08:48:56;;;;;;;2.35;1.88;;;12.90;99.60;;;;;;5031830;28;20036;-44
2023/12/17 08:51:22;;;;;;;2.92;2.22;;;13.10;99.50;;;;;;5031592;28;20427;-44
2023/12/17 08:53:48;;;;;;;2.53;2.25;;;13.20;99.40;;;;;;5032408;28;20037;-44
2023/12/17 08:56:13;;;;;;;2.70;1.80;;;13.20;99.30;;;;;;5032120;28;20029;-43
2023/12/17 08:58:39;;;;;;;5.15;2.22;;;13.30;99.20;;;;;;5031354;28;20185;-44
2023/12/17 09:01:05;;;;;;;2.65;2.00;;;13.40;99.10;;;;;;5031941;28;20037;-44
2023/12/17 09:03:30;;;;;;;3.22;2.25;;;13.50;99.00;;;;;;5032380;28;20097;-44
2023/12/17 09:05:56;;;;;;;2.88;2.15;;;13.60;99.00;;;;;;5031703;28;20025;-44
2023/12/17 09:08:22;;;;;;;2.75;2.08;;;13.70;98.90;;;;;;5031114;28;20021;-43
2023/12/17 09:10:47;;;;;;;2.80;1.80;;;13.70;98.80;;;;;;5030905;28;20048;-44
2023/12/17 09:13:13;;;;;;;2.17;1.80;;;13.80;98.70;;;;;;5032083;28;20399;-44
2023/12/17 09:15:39;;;;;;;3.08;2.17;;;13.90;98.70;;;;;;5031903;28;20022;-44
2023/12/17 09:18:08;;;;;;;2.60;2.00;;;14.00;98.60;;;;;;5032088;28;20380;-41
2023/12/17 09:20:33;;;;;;;2.83;2.17;;;14.00;98.50;;;;;;5032205;28;20101;-43
2023/12/17 09:22:59;;;;;;;3.33;2.13;;;14.10;98.50;;;;;;5031591;28;20138;-44
2023/12/17 09:25:25;;;;;;;2.15;1.85;;;14.20;98.40;;;;;;5031824;28;20048;-44
2023/12/17 09:27:51;;;;;;;2.63;2.13;;;14.30;98.30;;;;;;5031411;28;20033;-44
2023/12/17 09:30:18;;;;;;;3.55;2.45;;;14.40;98.20;;;;;;5030770;28;20112;-44
2023/12/17 09:32:44;;;;;;;2.50;2.05;;;14.50;98.20;;;;;;5031193;28;20064;-44
2023/12/17 09:35:13;;;;;;;2.53;1.90;;;14.50;98.10;;;;;;5032113;28;20434;-42
2023/12/17 09:37:39;;;;;;;2.67;1.92;;;14.60;98.00;;;;;;5030697;28;20438;-44
2023/12/17 09:40:05;;;;;;;2.72;2.20;;;14.70;98.00;;;;;;5031728;28;20021;-43
2023/12/17 09:42:31;;;;;;;2.67;2.22;;;14.80;98.00;;;;;;5033866;28;20490;-43
2023/12/17 09:44:57;;;;;;;2.72;2.28;;;14.90;97.90;;;;;;5035464;28;20033;-44
2023/12/17 09:47:23;;;;;;;3.30;2.20;;;15.00;97.90;;;;;;5033952;28;20022;-44
2023/12/17 09:49:49;;;;;;;3.03;2.10;;;15.00;98.10;;;;;;5034322;28;20029;-43
2023/12/17 09:52:19;;;;;;;3.45;2.30;;;15.00;98.30;;;;;;5034090;28;20457;-43
2023/12/17 09:54:48;;;;;;;3.00;2.00;;;15.00;98.40;;;;;;5034168;28;20438;-44
2023/12/17 09:57:16;;;;;;;2.53;2.03;;;15.10;98.60;;;;;;5035111;28;20047;-44
2023/12/17 09:59:42;;;;;;;2.45;2.25;;;15.10;98.60;;;;;;5033783;28;20026;-44
2023/12/17 10:02:15;;;;;;;3.33;2.10;;;15.30;98.80;;;;;;5033784;28;20017;-44
2023/12/17 10:04:40;;;;;;;2.78;2.20;;;15.40;98.70;;;;;;5034188;28;20072;-44
2023/12/17 10:07:06;;;;;;;2.95;2.25;;;15.60;98.60;;;;;;5034335;28;20025;-44
2023/12/17 10:09:35;;;;;;;2.40;2.10;;;15.70;98.30;;;;;;5034917;28;20088;-44
2023/12/17 10:12:02;;;;;;;3.13;2.13;;;15.80;98.00;;;;;;5034946;28;20029;-44
2023/12/17 10:14:30;;;;;;;2.67;2.13;;;15.90;97.90;;;;;;5034691;28;20025;-43
2023/12/17 10:16:57;;;;;;;2.75;2.30;;;16.10;97.50;;;;;;5034272;28;20091;-42
2023/12/17 10:19:23;;;;;;;3.13;2.28;;;16.30;97.20;;;;;;5034249;28;20060;-44
2023/12/17 10:21:48;;;;;;;3.17;2.50;;;16.40;96.90;;;;;;5033254;28;20025;-44
2023/12/17 10:24:14;;;;;;;2.88;2.22;;;16.60;96.60;;;;;;5033860;28;20036;-43
2023/12/17 10:26:47;;;;;;;3.03;2.40;;;16.80;96.30;;;;;;5033358;28;20094;-44
2023/12/17 10:29:18;;;;;;;2.10;1.75;;;16.90;96.00;;;;;;5033549;28;20091;-44
2023/12/17 10:31:44;;;;;;;2.67;2.00;;;17.20;95.90;;;;;;5033592;28;20036;-44
2023/12/17 10:34:22;;;;;;;2.70;2.20;;;17.30;95.30;;;;;;5034476;28;20041;-43
2023/12/17 10:36:50;;;;;;;2.78;2.20;;;17.50;95.10;;;;;;5035192;28;20021;-44
2023/12/17 10:39:17;;;;;;;2.30;1.83;;;17.50;94.90;;;;;;5034156;28;20381;-44
2023/12/17 10:41:46;;;;;;;2.58;2.08;;;17.60;94.70;;;;;;5033521;28;20068;-44
2023/12/17 10:44:13;;;;;;;2.35;2.00;;;17.70;94.60;;;;;;5034439;28;20056;-43
2023/12/17 10:46:42;;;;;;;2.92;2.28;;;17.80;94.50;;;;;;5034859;28;20037;-44
2023/12/17 10:49:08;;;;;;;3.05;2.00;;;17.90;94.30;;;;;;5032991;28;20017;-44
2023/12/17 10:51:37;;;;;;;2.40;1.92;;;18.00;94.20;;;;;;5032937;28;20022;-44
2023/12/17 10:54:03;;;;;;;2.30;1.90;;;18.10;94.00;;;;;;5034237;28;20029;-44
2023/12/17 10:56:34;;;;;;;2.70;1.83;;;18.20;93.90;;;;;;5032655;28;20094;-44
2023/12/17 10:59:05;;;;;;;3.53;2.38;;;18.20;93.80;;;;;;5034737;28;20006;-43
2023/12/17 11:01:32;;;;;;;2.70;1.80;;;18.30;93.70;;;;;;5031228;28;20494;-43
2023/12/17 11:03:58;;;;;;;2.75;2.15;;;18.30;93.60;;;;;;5033388;28;20485;-43
2023/12/17 11:06:24;;;;;;;3.55;2.08;;;18.40;93.50;;;;;;5032408;28;20030;-44
2023/12/17 11:08:49;;;;;;;2.35;2.08;;;18.40;93.40;;;;;;5033199;28;20029;-43
2023/12/17 11:11:15;;;;;;;2.60;1.88;;;18.40;93.30;;;;;;5033367;28;20017;-44
2023/12/17 11:13:41;;;;;;;2.25;1.90;;;18.50;93.30;;;;;;5032545;28;20028;-43
2023/12/17 11:16:25;;;;;;;2.58;2.10;;;18.50;93.20;;;;;;5033294;28;20032;-44
2023/12/17 11:18:53;;;;;;;2.47;2.05;;;18.60;93.10;;;;;;5032056;28;20495;-44
2023/12/17 11:21:19;;;;;;;2.83;2.15;;;18.60;93.00;;;;;;5032218;28;20022;-44
2023/12/17 11:23:49;;;;;;;3.42;2.08;;;18.60;92.90;;;;;;5032879;28;20032;-43
2023/12/17 11:26:17;;;;;;;2.80;2.08;;;18.70;92.90;;;;;;5032968;28;20064;-43
2023/12/17 11:28:44;;;;;;;3.25;2.10;;;18.70;92.80;;;;;;5032770;28;20025;-44
2023/12/17 11:31:11;;;;;;;2.95;2.20;;;18.70;92.70;;;;;;5033782;28;20028;-44
2023/12/17 11:33:38;;;;;;;3.10;2.03;;;18.80;92.70;;;;;;5032935;28;20021;-44
2023/12/17 11:36:10;;;;;;;2.85;2.17;;;18.80;92.60;;;;;;5032981;28;20072;-44
2023/12/17 11:38:36;;;;;;;3.15;2.25;;;18.90;92.60;;;;;;5031863;28;20029;-44
2023/12/17 11:41:05;;;;;;;2.80;1.90;;;18.90;92.50;;;;;;5031887;28;20102;-44
2023/12/17 11:43:31;;;;;;;2.17;1.95;;;18.90;92.40;;;;;;5031895;28;20029;-44
2023/12/17 11:45:57;;;;;;;2.85;1.92;;;18.90;92.40;;;;;;5031713;28;20034;-44
2023/12/17 11:48:24;;;;;;;2.17;1.70;;;18.90;92.30;;;;;;5031873;28;20021;-43
2023/12/17 11:50:52;;;;;;;3.60;1.90;;;18.90;92.30;;;;;;5033198;28;20086;-44
2023/12/17 11:53:19;;;;;;;2.15;1.95;;;18.90;92.20;;;;;;5033156;28;20108;-44
2023/12/17 11:55:47;;;;;;;2.72;2.13;;;18.90;92.10;;;;;;5032774;28;20025;-44
2023/12/17 11:58:21;;;;;;;2.92;1.92;;;18.90;92.10;;;;;;5032133;28;20032;-44
2023/12/17 12:01:08;;;;;;;3.15;2.20;;;19.00;92.10;;;;;;5031866;28;20025;-42
2023/12/17 12:03:34;;;;;;;2.75;2.10;;;18.90;92.10;;;;;;5032147;28;20059;-44
2023/12/17 12:06:06;;;;;;;2.70;2.00;;;18.90;92.00;;;;;;5032039;28;20029;-43
2023/12/17 12:08:35;;;;;;;2.63;2.00;;;18.90;92.00;;;;;;5032454;28;20022;-44
2023/12/17 12:11:04;;;;;;;2.63;1.90;;;18.90;91.90;;;;;;5032493;28;20487;-44
2023/12/17 12:13:37;;;;;;;2.55;1.95;;;18.90;91.90;;;;;;5031641;28;20036;-44
2023/12/17 12:16:03;;;;;;;2.93;1.97;;;18.90;91.80;;;;;;5031590;28;20026;-43
2023/12/17 12:18:29;;;;;;;2.70;2.08;;;18.90;91.80;;;;;;5032428;28;20021;-43
2023/12/17 12:20:55;;;;;;;2.90;2.22;;;18.90;91.80;;;;;;5031597;28;20025;-44
2023/12/17 12:23:23;;;;;;;2.20;1.80;;;19.00;91.80;;;;;;5031935;28;20029;-43
2023/12/17 12:25:49;;;;;;;3.53;2.13;;;19.00;91.70;;;;;;5032146;28;20471;-44
2023/12/17 12:28:19;;;;;;;3.42;2.17;;;19.00;91.70;;;;;;5031848;28;20020;-43
2023/12/17 12:30:46;;;;;;;2.58;2.05;;;19.00;91.60;;;;;;5032385;28;20064;-44
2023/12/17 12:33:17;;;;;;;3.50;2.10;;;19.00;91.60;;;;;;5031518;28;20041;-44
2023/12/17 12:35:44;;;;;;;3.45;2.13;;;18.90;91.60;;;;;;5031108;28;20096;-44
2023/12/17 12:38:36;;;;;;;3.33;2.30;;;18.90;91.50;;;;;;5031134;28;20112;-44
2023/12/17 12:41:10;;;;;;;3.08;2.25;;;18.90;91.50;;;;;;5030473;28;20500;-44
2023/12/17 12:43:39;;;;;;;3.17;2.42;;;18.90;91.50;;;;;;5031354;28;20026;-43